Time;durP1;ratioP1;P1;durP2;ratioP2;P2;SDS_P1;SDS_P2;PMS_P1;PMS_P2;Temp;Humidity;BMP_temperature;BMP_pressure;BME280_temperature;BME280_humidity;BME280_pressure;Samples;Min_cycle;Max_cycle;Signal;HPM_P1;HPM_P2
2023/11/01 00:01:05;;;;;;;2.67;2.37;;;;;;;9.32;100.00;99538.88;5062399;57;1136831;-77
2023/11/01 00:06:11;;;;;;;3.03;2.00;;;;;;;9.25;100.00;99540.37;5042225;57;1136404;-75
2023/11/01 00:11:16;;;;;;;2.27;1.80;;;;;;;9.21;100.00;99552.98;5064905;56;1136608;-77
2023/11/01 00:16:22;;;;;;;1.53;1.33;;;;;;;9.17;100.00;99559.01;5147126;56;1136648;-78
2023/11/01 00:21:28;;;;;;;1.85;1.75;;;;;;;9.14;100.00;99576.92;5126039;56;1136844;-78
2023/11/01 00:26:33;;;;;;;1.50;1.42;;;;;;;9.09;100.00;99584.39;5125580;56;1136741;-76
2023/11/01 00:31:39;;;;;;;3.43;1.23;;;;;;;9.06;100.00;99598.67;5147275;56;1137030;-75
2023/11/01 00:36:46;;;;;;;2.58;1.55;;;;;;;9.01;100.00;99610.61;5126343;56;1136798;-76
2023/11/01 00:41:51;;;;;;;1.10;1.10;;;;;;;8.96;100.00;99616.75;5126810;56;1136774;-73
2023/11/01 00:46:57;;;;;;;1.72;1.60;;;;;;;8.87;100.00;99625.42;5133607;56;1136843;-78
2023/11/01 00:52:03;;;;;;;2.60;1.30;;;;;;;8.79;100.00;99633.52;5137109;56;1136672;-78
2023/11/01 00:57:08;;;;;;;1.53;1.50;;;;;;;8.71;100.00;99645.16;5127195;56;1136644;-75
2023/11/01 01:02:14;;;;;;;0.85;0.85;;;;;;;8.63;100.00;99649.42;5127693;56;1137178;-72
2023/11/01 01:07:20;;;;;;;2.50;1.70;;;;;;;8.56;100.00;99647.77;5128051;56;1136750;-73
2023/11/01 01:12:26;;;;;;;2.97;1.30;;;;;;;8.49;100.00;99651.05;5042979;56;1136790;-78
2023/11/01 01:17:31;;;;;;;1.13;1.03;;;;;;;8.42;100.00;99660.77;5044100;56;1136718;-78
2023/11/01 01:22:37;;;;;;;1.77;1.10;;;;;;;8.35;100.00;99667.52;5146809;56;1136596;-73
2023/11/01 01:27:43;;;;;;;1.40;1.37;;;;;;;8.28;100.00;99674.68;5128639;56;1136748;-74
2023/11/01 01:32:49;;;;;;;1.53;1.33;;;;;;;8.17;100.00;99679.52;5093226;56;1136947;-81
2023/11/01 01:37:55;;;;;;;3.80;1.60;;;;;;;8.10;100.00;99679.64;5057542;57;1136865;-79
2023/11/01 01:43:18;;;;;;;2.35;1.37;;;;;;;7.99;100.00;99682.31;5038216;57;1136930;-80
2023/11/01 01:48:24;;;;;;;1.50;1.40;;;;;;;7.91;100.00;99688.68;5063919;56;1136633;-78
2023/11/01 01:53:31;;;;;;;3.73;1.50;;;;;;;7.81;100.00;99692.98;5146583;56;1136741;-74
2023/11/01 01:58:38;;;;;;;1.90;1.40;;;;;;;7.76;100.00;99689.42;5126673;56;1137039;-79
2023/11/01 02:03:44;;;;;;;1.37;1.27;;;;;;;7.65;100.00;99697.30;5126672;56;1136965;-74
2023/11/01 02:08:50;;;;;;;4.12;1.75;;;;;;;7.56;100.00;99705.45;5102235;56;1136975;-80
2023/11/01 02:13:55;;;;;;;1.97;1.80;;;;;;;7.48;100.00;99710.97;5042771;57;1136785;-75
2023/11/01 02:19:01;;;;;;;2.97;1.80;;;;;;;7.38;100.00;99720.03;5042844;56;1134603;-81
2023/11/01 02:24:07;;;;;;;5.80;1.50;;;;;;;7.28;100.00;99715.97;5043122;57;1134716;-77
2023/11/01 02:29:12;;;;;;;2.03;1.83;;;;;;;7.21;100.00;99721.80;5062271;57;1134532;-76
2023/11/01 02:34:19;;;;;;;1.80;1.57;;;;;;;7.14;100.00;99726.70;5043039;57;1134907;-76
2023/11/01 02:39:25;;;;;;;2.40;1.53;;;;;;;7.09;100.00;99738.51;5042845;57;1134387;-75
2023/11/01 02:44:30;;;;;;;2.30;1.40;;;;;;;7.08;100.00;99747.34;5062780;56;1134569;-75
2023/11/01 02:49:36;;;;;;;2.73;1.47;;;;;;;7.02;100.00;99753.92;5042893;56;1134640;-77
2023/11/01 02:54:42;;;;;;;1.00;1.00;;;;;;;6.96;100.00;99764.89;5020607;56;1254794;-73
2023/11/01 02:59:47;;;;;;;5.57;1.17;;;;;;;6.88;100.00;99777.27;5062008;56;1134945;-75
2023/11/01 03:04:53;;;;;;;3.12;1.20;;;;;;;6.87;100.00;99782.67;5042836;56;1134942;-71
2023/11/01 03:09:59;;;;;;;0.77;0.77;;;;;;;6.80;100.00;99778.80;5042332;56;1135017;-76
2023/11/01 03:15:07;;;;;;;0.77;0.77;;;;;;;6.68;100.00;99767.41;5064346;56;1134735;-73
2023/11/01 03:20:12;;;;;;;0.90;0.90;;;;;;;6.57;100.00;99775.25;5147321;56;1134651;-72
2023/11/01 03:25:18;;;;;;;4.63;2.07;;;;;;;6.45;100.00;99782.20;5127477;56;1134851;-76
2023/11/01 03:30:23;;;;;;;2.47;0.70;;;;;;;6.33;100.00;99793.13;5127089;56;1134535;-78
2023/11/01 03:35:29;;;;;;;0.80;0.80;;;;;;;6.28;100.00;99796.55;5145891;56;1134752;-73
2023/11/01 03:40:35;;;;;;;0.87;0.87;;;;;;;6.22;100.00;99814.06;5106634;56;1134793;-74
2023/11/01 03:45:41;;;;;;;1.37;0.90;;;;;;;6.13;100.00;99815.17;5056921;57;1134850;-75
2023/11/01 03:50:47;;;;;;;1.32;0.78;;;;;;;6.05;100.00;99827.54;5061378;57;1134433;-77
2023/11/01 03:55:52;;;;;;;4.03;0.90;;;;;;;5.95;100.00;99837.85;5044084;57;1134856;-75
2023/11/01 04:00:58;;;;;;;7.20;2.67;;;;;;;5.93;100.00;99839.73;5052088;57;1134732;-76
2023/11/01 04:06:04;;;;;;;5.70;2.15;;;;;;;5.85;100.00;99849.88;5052627;57;1134547;-71
2023/11/01 04:11:10;;;;;;;0.83;0.83;;;;;;;5.78;100.00;99852.57;5091744;56;1134733;-73
2023/11/01 04:16:15;;;;;;;1.13;1.13;;;;;;;5.71;100.00;99858.33;5137353;56;1134751;-80
2023/11/01 04:21:21;;;;;;;2.47;0.97;;;;;;;5.65;100.00;99861.72;5067855;56;1134542;-76
2023/11/01 04:26:27;;;;;;;2.73;1.00;;;;;;;5.58;100.00;99857.85;5068996;57;1134714;-73
2023/11/01 04:31:32;;;;;;;1.23;0.90;;;;;;;5.54;100.00;99869.95;5049338;57;1134698;-76
2023/11/01 04:36:38;;;;;;;1.90;1.07;;;;;;;5.52;100.00;99876.61;5066231;56;1135022;-76
2023/11/01 04:41:44;;;;;;;5.17;0.93;;;;;;;5.49;100.00;99873.38;5158741;56;1134822;-74
2023/11/01 04:46:49;;;;;;;2.22;0.90;;;;;;;5.46;100.00;99878.35;5138924;56;1134867;-79
2023/11/01 04:51:55;;;;;;;6.62;1.07;;;;;;;5.42;100.00;99881.27;5138495;56;1134832;-76
2023/11/01 04:57:03;;;;;;;0.90;0.80;;;;;;;5.38;100.00;99889.80;5137027;56;1141481;-77
2023/11/01 05:02:10;;;;;;;1.77;1.00;;;;;;;5.37;100.00;99890.74;5147354;56;1134617;-77
2023/11/01 05:07:16;;;;;;;4.97;1.17;;;;;;;5.33;100.00;99886.66;5022998;57;1134944;-69
2023/11/01 05:12:21;;;;;;;2.00;0.97;;;;;;;5.34;100.00;99888.81;5045947;56;1134813;-80
2023/11/01 05:17:27;;;;;;;0.80;0.80;;;;;;;5.29;100.00;99906.16;5063695;56;1134834;-74
2023/11/01 05:22:32;;;;;;;1.10;1.00;;;;;;;5.26;100.00;99901.95;5127627;56;1134824;-71
2023/11/01 05:27:39;;;;;;;6.23;1.00;;;;;;;5.22;100.00;99904.39;5127853;56;1134826;-72
2023/11/01 05:32:46;;;;;;;1.53;1.13;;;;;;;5.22;100.00;99908.79;5150515;56;1134931;-77
2023/11/01 05:37:52;;;;;;;2.72;0.60;;;;;;;5.17;100.00;99918.29;5141543;56;1134641;-73
2023/11/01 05:42:58;;;;;;;4.97;1.00;;;;;;;5.15;100.00;99927.19;5141689;56;1134489;-70
2023/11/01 05:48:10;;;;;;;1.20;0.78;;;;;;;5.14;100.00;99935.52;5140225;56;1134627;-76
2023/11/01 05:53:12;;;;;;;1.63;0.90;;;;;;;5.13;100.00;99951.34;5127297;56;1134581;-77
2023/11/01 05:58:17;;;;;;;2.67;1.00;;;;;;;5.14;100.00;99962.20;5127448;56;1134775;-76
2023/11/01 06:03:29;;;;;;;1.37;0.63;;;;;;;5.13;100.00;99978.39;5096069;56;1134778;-78
2023/11/01 06:08:30;;;;;;;0.70;0.70;;;;;;;5.14;100.00;99984.48;5072941;56;1134907;-70
2023/11/01 06:13:36;;;;;;;1.07;0.70;;;;;;;5.14;100.00;99991.88;5078690;56;1134663;-75
2023/11/01 06:18:41;;;;;;;4.13;1.00;;;;;;;5.17;100.00;99993.47;5111317;56;1134617;-73
2023/11/01 06:23:47;;;;;;;1.43;0.80;;;;;;;5.20;100.00;100003.73;5158706;56;1134846;-76
2023/11/01 06:28:52;;;;;;;1.37;1.17;;;;;;;5.17;100.00;100000.86;5123479;56;1136858;-72
2023/11/01 06:33:59;;;;;;;12.47;1.30;;;;;;;5.24;100.00;100015.24;5105430;56;1137050;-71
2023/11/01 06:39:04;;;;;;;0.98;0.98;;;;;;;5.24;100.00;100024.42;5105626;56;1139116;-77
2023/11/01 06:44:12;;;;;;;6.07;0.90;;;;;;;5.26;100.00;100029.09;5104842;55;1136593;-76
2023/11/01 06:49:17;;;;;;;1.40;0.77;;;;;;;5.29;100.00;100025.45;5066250;56;1136634;-74
2023/11/01 06:54:23;;;;;;;3.27;1.10;;;;;;;5.30;100.00;100021.42;5062749;56;1136679;-73
2023/11/01 06:59:28;;;;;;;3.30;0.90;;;;;;;5.34;100.00;100022.07;5072420;56;1136913;-72
2023/11/01 07:04:34;;;;;;;2.27;0.90;;;;;;;5.39;100.00;100021.76;5051522;57;1136633;-77
2023/11/01 07:09:40;;;;;;;8.17;1.30;;;;;;;5.51;100.00;100017.03;5110295;56;1136477;-73
2023/11/01 07:14:46;;;;;;;2.60;2.10;;;;;;;5.62;100.00;100018.51;5073842;56;1137038;-72
2023/11/01 07:19:51;;;;;;;1.77;1.52;;;;;;;5.78;100.00;100030.16;5120206;56;1137086;-72
2023/11/01 07:24:57;;;;;;;1.92;1.77;;;;;;;5.97;100.00;100026.22;5097491;56;1137068;-76
2023/11/01 07:30:03;;;;;;;7.10;1.67;;;;;;;6.20;100.00;100026.02;5065434;56;1136932;-78
2023/11/01 07:35:09;;;;;;;2.47;1.70;;;;;;;6.34;100.00;100029.02;5100351;56;1137092;-73
2023/11/01 07:40:15;;;;;;;2.03;1.83;;;;;;;6.30;100.00;100032.31;5138075;56;1136832;-72
2023/11/01 07:45:21;;;;;;;1.83;1.63;;;;;;;6.25;100.00;100030.49;5138121;56;1136990;-77
2023/11/01 07:50:26;;;;;;;4.50;0.70;;;;;;;6.22;100.00;100033.80;5157762;56;1136791;-76
2023/11/01 07:55:32;;;;;;;6.62;4.08;;;;;;;6.19;100.00;100032.68;5135331;56;1136606;-75
2023/11/01 08:00:38;;;;;;;2.43;0.83;;;;;;;6.25;100.00;100027.03;5114550;56;1136860;-72
2023/11/01 08:05:43;;;;;;;1.40;0.90;;;;;;;6.26;100.00;100028.20;5066079;56;1137155;-74
2023/11/01 08:10:49;;;;;;;1.23;1.13;;;;;;;6.31;100.00;100033.16;5113692;56;1146398;-78
2023/11/01 08:15:55;;;;;;;1.43;0.80;;;;;;;6.41;100.00;100032.92;4941904;58;1137080;-77
2023/11/01 08:21:00;;;;;;;1.75;0.70;;;;;;;6.50;100.00;100054.61;5122025;56;1137026;-76
2023/11/01 08:26:06;;;;;;;3.70;0.90;;;;;;;6.56;100.00;100054.20;5119823;56;1136768;-77
2023/11/01 08:31:12;;;;;;;1.87;1.03;;;;;;;6.53;100.00;100049.16;5043016;56;1136677;-71
2023/11/01 08:36:18;;;;;;;2.50;1.00;;;;;;;6.60;100.00;100045.14;5062321;56;1137079;-76
2023/11/01 08:41:23;;;;;;;0.93;0.87;;;;;;;6.70;100.00;100051.47;5116720;56;1136967;-73
2023/11/01 08:46:29;;;;;;;1.60;1.03;;;;;;;6.79;100.00;100057.86;5059965;56;1136791;-74
2023/11/01 08:51:38;;;;;;;6.03;1.27;;;;;;;6.86;100.00;100049.09;5029460;55;1138863;-71
2023/11/01 08:56:42;;;;;;;0.80;0.80;;;;;;;6.96;100.00;100048.33;5060849;57;1138836;-73
2023/11/01 09:01:47;;;;;;;3.07;1.10;;;;;;;7.02;100.00;100062.38;5094300;56;1142316;-74
2023/11/01 09:06:53;;;;;;;1.90;0.87;;;;;;;7.13;100.00;100061.61;5113819;56;1138998;-75
2023/11/01 09:11:59;;;;;;;3.92;1.82;;;;;;;7.22;100.00;100064.05;5048732;56;1138805;-73
2023/11/01 09:17:05;;;;;;;0.82;0.80;;;;;;;7.30;100.00;100060.42;5117766;56;1138759;-72
2023/11/01 09:22:12;;;;;;;5.03;1.10;;;;;;;7.42;100.00;100066.11;5126605;56;1138997;-74
2023/11/01 09:27:18;;;;;;;4.43;1.77;;;;;;;7.52;100.00;100061.86;5099235;56;1139226;-73
2023/11/01 09:32:23;;;;;;;3.90;1.77;;;;;;;7.58;100.00;100063.22;5073528;56;1138882;-71
2023/11/01 09:37:29;;;;;;;0.83;0.83;;;;;;;7.56;100.00;100065.95;5102112;56;1138769;-73
2023/11/01 09:42:34;;;;;;;1.97;1.87;;;;;;;7.57;100.00;100072.91;5065004;56;1139176;-74
2023/11/01 09:47:41;;;;;;;9.80;3.57;;;;;;;7.68;100.00;100070.80;5111375;56;1139001;-75
2023/11/01 09:52:47;;;;;;;1.60;1.50;;;;;;;7.80;100.00;100080.90;5096552;56;1188798;-72
2023/11/01 09:57:53;;;;;;;6.95;1.92;;;;;;;7.82;100.00;100079.00;5126198;56;1138999;-72
2023/11/01 10:02:59;;;;;;;5.20;1.60;;;;;;;7.82;100.00;100077.21;5146843;56;1138907;-73
2023/11/01 10:08:04;;;;;;;1.10;1.10;;;;;;;7.86;100.00;100071.25;5129096;56;1138869;-73
2023/11/01 10:13:10;;;;;;;2.87;2.47;;;;;;;7.85;100.00;100071.73;5137987;56;1138882;-72
2023/11/01 10:18:16;;;;;;;17.27;8.10;;;;;;;7.89;100.00;100061.34;5157592;56;1138932;-72
2023/11/01 10:23:21;;;;;;;1.40;1.30;;;;;;;7.96;100.00;100053.34;5137279;56;1140989;-73
2023/11/01 10:28:27;;;;;;;6.87;2.20;;;;;;;8.11;100.00;100053.98;5061650;56;1138763;-72
2023/11/01 10:33:34;;;;;;;19.07;1.93;;;;;;;8.22;100.00;100058.00;5157885;56;1139294;-74
2023/11/01 10:38:41;;;;;;;6.70;2.43;;;;;;;8.40;100.00;100055.80;5138256;56;1141001;-73
2023/11/01 10:43:48;;;;;;;6.17;2.23;;;;;;;8.52;100.00;100045.64;5137498;56;1138836;-72
2023/11/01 10:48:54;;;;;;;9.67;5.63;;;;;;;8.55;100.00;100044.09;5158476;56;1139017;-74
2023/11/01 10:54:01;;;;;;;3.05;1.30;;;;;;;8.62;100.00;100037.37;5089893;56;1140891;-73
2023/11/01 10:59:34;;;;;;;0.90;0.90;;;;;;;8.69;100.00;100032.00;5052472;57;1139063;-75
2023/11/01 11:05:04;;;;;;;3.80;2.50;;;;;;;8.81;100.00;100036.80;5072042;57;1139236;-73
2023/11/01 11:10:27;;;;;;;7.60;2.10;;;;;;;8.96;100.00;100029.48;5102180;56;1138672;-74
2023/11/01 11:15:56;;;;;;;4.10;1.47;;;;;;;9.17;100.00;100019.85;5035341;57;1138919;-74
2023/11/01 11:21:00;;;;;;;1.62;1.27;;;;;;;9.38;100.00;100013.34;5095933;56;1138827;-75
2023/11/01 11:26:06;;;;;;;1.70;1.20;;;;;;;9.64;100.00;100011.22;5128865;56;1138859;-75
2023/11/01 11:31:24;;;;;;;2.83;1.53;;;;;;;9.89;100.00;100014.86;5049668;56;1139167;-74
2023/11/01 11:36:29;;;;;;;5.37;2.05;;;;;;;9.97;100.00;100021.66;5042374;56;1138974;-75
2023/11/01 11:41:46;;;;;;;6.73;1.60;;;;;;;9.91;100.00;100016.06;5077606;56;1138735;-75
2023/11/01 11:46:55;;;;;;;5.43;2.17;;;;;;;9.86;100.00;100009.83;5041960;57;1138993;-75
2023/11/01 11:52:13;;;;;;;2.07;1.90;;;;;;;9.79;100.00;100002.87;5072917;56;1138797;-75
2023/11/01 11:57:16;;;;;;;3.27;2.30;;;;;;;9.69;100.00;99996.69;5080560;56;1138954;-77
2023/11/01 12:02:20;;;;;;;3.23;2.27;;;;;;;9.63;100.00;99987.94;5056072;57;1136542;-74
2023/11/01 12:07:26;;;;;;;5.23;2.80;;;;;;;9.61;100.00;99974.53;5037833;56;1136594;-76
2023/11/01 12:12:31;;;;;;;3.37;1.33;;;;;;;9.62;100.00;99970.93;5023548;57;1136910;-77
2023/11/01 12:17:37;;;;;;;3.53;1.43;;;;;;;9.61;100.00;99972.73;5123441;56;1137178;-74
2023/11/01 12:22:44;;;;;;;2.93;2.20;;;;;;;9.66;100.00;99965.25;5111151;56;1136751;-70
2023/11/01 12:27:52;;;;;;;6.47;4.27;;;;;;;9.69;100.00;99965.00;5105067;56;1151493;-74
2023/11/01 12:32:57;;;;;;;7.85;3.50;;;;;;;9.72;100.00;99963.92;5140498;56;1136908;-71
2023/11/01 12:38:03;;;;;;;8.63;5.47;;;;;;;9.72;100.00;99953.36;5105336;55;1136749;-73
2023/11/01 12:43:18;;;;;;;57.55;25.20;;;;;;;9.78;100.00;99954.98;5093775;55;1136699;-72
2023/11/01 12:48:17;;;;;;;9.80;6.03;;;;;;;9.80;100.00;99954.38;5150701;56;1140997;-75
2023/11/01 12:53:23;;;;;;;30.53;13.90;;;;;;;9.83;100.00;99962.53;5116639;56;1136506;-73
2023/11/01 12:58:28;;;;;;;19.93;11.00;;;;;;;9.84;100.00;99955.80;5055926;57;1140875;-71
2023/11/01 13:03:34;;;;;;;35.57;15.57;;;;;;;9.90;100.00;99955.79;5075513;57;1140699;-75
2023/11/01 13:08:40;;;;;;;5.43;3.57;;;;;;;9.96;100.00;99955.25;5087712;56;1140956;-74
2023/11/01 13:13:45;;;;;;;9.50;4.33;;;;;;;10.04;100.00;99954.14;5105622;56;1136415;-74
2023/11/01 13:18:52;;;;;;;95.83;56.33;;;;;;;10.04;100.00;99957.27;5078778;56;1138868;-74
2023/11/01 13:23:57;;;;;;;15.43;7.30;;;;;;;10.02;100.00;99944.19;5125510;56;1142895;-74
2023/11/01 13:29:03;;;;;;;9.07;4.37;;;;;;;9.98;100.00;99941.92;5044981;56;1140957;-72
2023/11/01 13:34:09;;;;;;;11.05;5.53;;;;;;;9.89;100.00;99936.94;5039589;56;1136642;-72
2023/11/01 13:39:16;;;;;;;11.83;6.37;;;;;;;9.88;100.00;99947.15;5062286;57;1138977;-71
2023/11/01 13:44:21;;;;;;;11.50;6.70;;;;;;;9.87;100.00;99941.03;5116821;56;1138880;-74
2023/11/01 13:49:27;;;;;;;22.57;12.10;;;;;;;9.88;100.00;99949.31;5126653;56;1138947;-75
2023/11/01 13:54:33;;;;;;;28.03;14.33;;;;;;;9.91;100.00;99946.06;5146785;56;1140771;-76
2023/11/01 13:59:38;;;;;;;30.23;14.25;;;;;;;9.94;100.00;99954.55;5126226;56;1140935;-74
2023/11/01 14:04:44;;;;;;;25.17;11.87;;;;;;;9.96;100.00;99946.01;5126327;56;1140824;-76
2023/11/01 14:09:52;;;;;;;33.77;17.63;;;;;;;9.97;100.00;99952.13;5083994;56;1141089;-70
2023/11/01 14:14:58;;;;;;;152.27;69.80;;;;;;;9.98;100.00;99946.72;5042016;56;1140848;-75
2023/11/01 14:20:03;;;;;;;201.27;79.67;;;;;;;9.99;100.00;99939.63;5096703;56;1142775;-72
2023/11/01 14:25:10;;;;;;;26.90;15.90;;;;;;;10.02;100.00;99938.91;5062050;56;1143216;-72
2023/11/01 14:30:17;;;;;;;14.57;8.20;;;;;;;10.00;100.00;99928.11;5097452;56;1142737;-76
2023/11/01 14:35:23;;;;;;;18.80;11.37;;;;;;;9.99;100.00;99923.30;5138002;56;1140557;-75
2023/11/01 14:40:30;;;;;;;13.70;8.03;;;;;;;9.99;100.00;99926.42;5137646;56;1140727;-72
2023/11/01 14:45:35;;;;;;;28.63;13.50;;;;;;;10.01;100.00;99922.70;5158131;56;1139010;-75
2023/11/01 14:50:41;;;;;;;16.30;10.80;;;;;;;10.02;100.00;99916.92;5137315;56;1143056;-74
2023/11/01 14:55:46;;;;;;;19.37;10.43;;;;;;;9.99;100.00;99911.90;5137491;56;1143181;-72
2023/11/01 15:00:52;;;;;;;167.03;67.43;;;;;;;9.95;100.00;99911.31;5178471;56;1140887;-73
2023/11/01 15:05:58;;;;;;;163.37;67.63;;;;;;;9.90;100.00;99913.53;5137749;56;1142986;-74
2023/11/01 15:11:04;;;;;;;83.77;41.17;;;;;;;9.86;100.00;99904.17;5054231;56;1142911;-75
2023/11/01 15:16:09;;;;;;;18.33;8.20;;;;;;;9.84;100.00;99895.55;5052259;57;1140983;-74
2023/11/01 15:21:15;;;;;;;27.70;11.67;;;;;;;9.82;100.00;99886.42;5059055;57;1139172;-70
2023/11/01 15:26:21;;;;;;;13.32;8.18;;;;;;;9.81;100.00;99878.14;5040197;57;1141031;-73
2023/11/01 15:31:26;;;;;;;15.00;7.97;;;;;;;9.78;100.00;99875.76;5055332;56;1139188;-74
2023/11/01 15:36:32;;;;;;;18.03;8.90;;;;;;;9.77;100.00;99874.59;5074321;57;1138795;-72
2023/11/01 15:41:40;;;;;;;20.55;9.40;;;;;;;9.71;100.00;99873.78;5055236;56;1139016;-72
2023/11/01 15:46:45;;;;;;;17.87;10.40;;;;;;;9.67;100.00;99869.72;5055146;57;1139000;-72
2023/11/01 15:51:51;;;;;;;27.60;10.13;;;;;;;9.64;100.00;99868.65;5074883;57;1140889;-72
2023/11/01 15:56:56;;;;;;;48.98;25.70;;;;;;;9.59;100.00;99858.50;5055057;57;1141077;-75
2023/11/01 16:02:03;;;;;;;29.30;16.32;;;;;;;9.56;100.00;99866.66;5046805;56;1141006;-76
2023/11/01 16:07:09;;;;;;;29.48;15.00;;;;;;;9.52;100.00;99856.00;5036846;56;1141169;-75
2023/11/01 16:12:14;;;;;;;35.07;14.67;;;;;;;9.45;100.00;99847.78;5065089;56;1141104;-75
2023/11/01 16:17:20;;;;;;;34.07;19.60;;;;;;;9.39;100.00;99843.48;5053699;56;1141098;-72
2023/11/01 16:22:26;;;;;;;32.60;22.60;;;;;;;9.32;100.00;99836.54;5095056;56;1140819;-71
2023/11/01 16:27:32;;;;;;;26.53;14.00;;;;;;;9.27;100.00;99836.11;5075749;57;1140971;-73
2023/11/01 16:32:38;;;;;;;25.17;12.07;;;;;;;9.23;100.00;99834.67;5055503;57;1141628;-74
2023/11/01 16:37:43;;;;;;;16.30;9.80;;;;;;;9.15;100.00;99834.48;5055820;57;1140949;-74
2023/11/01 16:42:49;;;;;;;32.78;13.62;;;;;;;9.10;100.00;99830.06;5064589;57;1138899;-71
2023/11/01 16:47:56;;;;;;;21.42;12.90;;;;;;;9.02;100.00;99821.45;5046551;57;1140882;-72
2023/11/01 16:53:01;;;;;;;30.43;12.80;;;;;;;8.95;100.00;99820.30;5021469;57;1140779;-72
2023/11/01 16:58:07;;;;;;;41.17;18.50;;;;;;;8.90;100.00;99822.45;5043612;56;1140886;-73
2023/11/01 17:03:13;;;;;;;31.40;15.90;;;;;;;8.84;100.00;99820.34;5051625;57;1140814;-73
2023/11/01 17:08:18;;;;;;;33.90;15.30;;;;;;;8.80;100.00;99821.55;5039835;56;1141057;-73
2023/11/01 17:13:24;;;;;;;33.37;15.37;;;;;;;8.77;100.00;99817.83;5083223;55;1141088;-73
2023/11/01 17:18:30;;;;;;;38.60;13.63;;;;;;;8.71;100.00;99815.68;5045892;56;1140681;-72
2023/11/01 17:23:35;;;;;;;34.03;17.17;;;;;;;8.68;100.00;99812.00;5052090;56;1140770;-74
2023/11/01 17:28:41;;;;;;;26.43;14.80;;;;;;;8.66;100.00;99807.33;5043104;56;1140584;-74
2023/11/01 17:33:47;;;;;;;33.20;17.97;;;;;;;8.66;100.00;99806.84;5061958;56;1141188;-74
2023/11/01 17:38:54;;;;;;;36.20;16.53;;;;;;;8.65;100.00;99802.54;5042988;56;1140961;-73
2023/11/01 17:44:00;;;;;;;27.70;14.97;;;;;;;8.67;100.00;99795.83;5042463;56;1140900;-71
2023/11/01 17:49:07;;;;;;;29.40;15.50;;;;;;;8.67;100.00;99790.55;5042818;57;1141308;-73
2023/11/01 17:54:15;;;;;;;35.38;15.78;;;;;;;8.68;100.00;99793.55;5062146;57;1141013;-74
2023/11/01 17:59:25;;;;;;;44.37;16.53;;;;;;;8.65;100.00;99784.09;5042082;57;1141145;-74
2023/11/01 18:04:31;;;;;;;36.40;16.02;;;;;;;8.63;100.00;99779.41;5041371;56;1141154;-73
2023/11/01 18:09:37;;;;;;;31.87;16.50;;;;;;;8.59;100.00;99777.98;5119657;56;1140869;-74
2023/11/01 18:14:44;;;;;;;32.17;18.50;;;;;;;8.57;100.00;99779.90;4959360;57;1140829;-71
2023/11/01 18:19:49;;;;;;;32.63;16.83;;;;;;;8.55;100.00;99772.63;5125657;56;1140941;-74
2023/11/01 18:24:55;;;;;;;29.32;14.90;;;;;;;8.55;100.00;99769.16;5145820;56;1141048;-72
2023/11/01 18:30:01;;;;;;;49.20;23.33;;;;;;;8.57;100.00;99765.88;5126423;56;1140707;-72
2023/11/01 18:35:06;;;;;;;28.57;16.00;;;;;;;8.61;100.00;99760.73;5126006;56;1140788;-71
2023/11/01 18:40:17;;;;;;;25.23;14.33;;;;;;;8.65;100.00;99755.09;5147009;56;1140844;-74
2023/11/01 18:45:23;;;;;;;26.47;14.60;;;;;;;8.68;100.00;99757.96;5126333;56;1141021;-74
2023/11/01 18:50:29;;;;;;;104.13;49.93;;;;;;;8.67;100.00;99751.02;5126119;56;1140938;-74
2023/11/01 18:55:34;;;;;;;39.97;19.00;;;;;;;8.71;100.00;99756.36;5146642;56;1143216;-71
2023/11/01 19:00:40;;;;;;;34.10;19.20;;;;;;;8.72;100.00;99756.24;5124758;56;1140917;-73
2023/11/01 19:05:46;;;;;;;31.87;17.80;;;;;;;8.72;100.00;99754.09;5091978;56;1140980;-72
2023/11/01 19:10:53;;;;;;;42.43;22.87;;;;;;;8.72;100.00;99755.41;5105725;56;1141120;-72
2023/11/01 19:16:06;;;;;;;43.03;22.37;;;;;;;8.72;100.00;99749.66;5075218;56;1150193;-73
2023/11/01 19:21:11;;;;;;;37.33;21.80;;;;;;;8.71;100.00;99754.56;5091287;56;1141099;-73
2023/11/01 19:26:20;;;;;;;33.78;18.30;;;;;;;8.69;100.00;99749.93;5079451;56;1140942;-71
2023/11/01 19:31:25;;;;;;;28.57;16.27;;;;;;;8.67;100.00;99745.74;5131324;56;1140747;-74
2023/11/01 19:36:31;;;;;;;29.70;16.47;;;;;;;8.65;100.00;99742.39;5113626;56;1140739;-74
2023/11/01 19:41:37;;;;;;;28.90;17.30;;;;;;;8.61;100.00;99733.05;5111480;56;1140803;-72
2023/11/01 19:46:42;;;;;;;42.03;26.73;;;;;;;8.58;100.00;99735.94;5137377;56;1141076;-73
2023/11/01 19:51:48;;;;;;;32.23;18.20;;;;;;;8.58;100.00;99730.66;5089266;56;1140991;-74
2023/11/01 19:56:54;;;;;;;91.77;42.77;;;;;;;8.59;100.00;99734.97;5071643;56;1141429;-77
2023/11/01 20:01:59;;;;;;;50.03;27.77;;;;;;;8.60;100.00;99733.53;5119489;56;1140785;-73
2023/11/01 20:07:08;;;;;;;55.50;33.37;;;;;;;8.60;100.00;99727.42;5115919;56;1141056;-72
2023/11/01 20:12:13;;;;;;;38.00;19.92;;;;;;;8.61;100.00;99721.19;5109998;56;1140941;-72
2023/11/01 20:17:19;;;;;;;40.90;21.17;;;;;;;8.62;100.00;99721.06;5112108;56;1140960;-71
2023/11/01 20:22:24;;;;;;;31.87;19.67;;;;;;;8.63;100.00;99714.00;5099490;56;1141011;-75
2023/11/01 20:27:30;;;;;;;33.63;19.27;;;;;;;8.68;100.00;99721.05;5096249;56;1140983;-73
2023/11/01 20:32:35;;;;;;;50.53;22.60;;;;;;;8.68;100.00;99709.20;5061299;56;1140804;-72
2023/11/01 20:37:41;;;;;;;41.33;21.20;;;;;;;8.67;100.00;99706.20;5106010;55;1140832;-73
2023/11/01 20:42:47;;;;;;;52.83;24.13;;;;;;;8.64;100.00;99702.02;5125712;56;1140752;-73
2023/11/01 20:47:52;;;;;;;57.43;25.67;;;;;;;8.63;100.00;99705.61;5121225;56;1140815;-70
2023/11/01 20:52:58;;;;;;;41.57;21.83;;;;;;;8.65;100.00;99702.38;5124226;56;1140776;-73
2023/11/01 20:58:03;;;;;;;40.07;19.73;;;;;;;8.67;100.00;99692.54;5065762;56;1140910;-71
2023/11/01 21:03:09;;;;;;;35.92;18.80;;;;;;;8.71;100.00;99691.78;5069518;56;1140960;-75
2023/11/01 21:08:16;;;;;;;39.73;19.50;;;;;;;8.72;100.00;99687.70;5100467;56;1141442;-74
2023/11/01 21:13:21;;;;;;;48.67;21.60;;;;;;;8.73;100.00;99675.36;5067597;56;1140795;-71
2023/11/01 21:18:27;;;;;;;33.27;17.77;;;;;;;8.76;100.00;99665.40;5101730;56;1140973;-74
2023/11/01 21:23:33;;;;;;;49.60;22.37;;;;;;;8.79;100.00;99666.47;5145859;56;1140997;-76
2023/11/01 21:28:41;;;;;;;40.57;21.53;;;;;;;8.83;100.00;99667.53;5123050;56;1140753;-76
2023/11/01 21:33:47;;;;;;;36.50;17.67;;;;;;;8.87;100.00;99663.17;5120171;56;1174752;-73
2023/11/01 21:38:57;;;;;;;31.33;15.40;;;;;;;8.93;100.00;99653.44;5094183;56;1197146;-76
2023/11/01 21:44:04;;;;;;;38.03;19.93;;;;;;;8.98;100.00;99649.94;5056615;56;1189695;-76
2023/11/01 21:49:23;;;;;;;38.62;20.86;;;;;;;9.03;100.00;99643.77;5115516;56;1141108;-76
2023/11/01 21:54:29;;;;;;;30.80;16.27;;;;;;;9.08;100.00;99640.27;5144539;56;1140820;-74
2023/11/01 21:59:37;;;;;;;26.47;12.50;;;;;;;9.16;100.00;99640.47;5071044;56;1140986;-77
2023/11/01 22:04:45;;;;;;;26.37;14.13;;;;;;;9.24;100.00;99637.63;5063397;56;1141005;-76
2023/11/01 22:09:53;;;;;;;23.67;13.03;;;;;;;9.27;100.00;99635.58;4962631;58;1141016;-76
2023/11/01 22:14:58;;;;;;;33.23;16.57;;;;;;;9.28;100.00;99625.38;5059517;56;1141259;-73
2023/11/01 22:20:08;;;;;;;32.30;17.67;;;;;;;9.24;100.00;99617.84;5108118;56;1141046;-71
2023/11/01 22:25:14;;;;;;;27.75;15.38;;;;;;;9.25;100.00;99623.48;5089436;56;1140949;-75
2023/11/01 22:30:20;;;;;;;25.00;13.67;;;;;;;9.21;100.00;99629.98;5096879;56;1140857;-72
2023/11/01 22:35:35;;;;;;;24.87;12.53;;;;;;;9.17;100.00;99617.52;5135311;56;1178522;-77
2023/11/01 22:40:43;;;;;;;27.53;13.00;;;;;;;9.17;100.00;99617.05;5100461;56;1241865;-74
2023/11/01 22:45:48;;;;;;;24.00;12.47;;;;;;;9.12;100.00;99608.71;5106310;56;1140685;-75
2023/11/01 22:50:54;;;;;;;20.72;12.70;;;;;;;9.12;100.00;99596.84;5052333;56;1140962;-75
2023/11/01 22:55:59;;;;;;;21.70;12.60;;;;;;;9.13;100.00;99598.52;5053057;56;1140673;-73
2023/11/01 23:01:06;;;;;;;25.13;11.93;;;;;;;9.12;100.00;99587.61;5071873;56;1141797;-75
2023/11/01 23:06:12;;;;;;;29.36;10.96;;;;;;;9.13;100.00;99584.48;5157311;56;1141009;-76
2023/11/01 23:11:18;;;;;;;18.82;12.13;;;;;;;9.12;100.00;99580.17;5052944;56;1141134;-76